Aérodrome :
LOGIN :

S'inscrire | Disclaimer

   EN    FR    IT 

 










Légende :    VFR   VFR Marginal   IFR   IFR Intensif   IFR Très Intensif
Visi : 
Plafond : 
>= 8 km
>= 3000ft
5 à 8 km
1000 à 3000 ft
1500m à 5 km
500 à 1000 ft
800 à 1500m
200 à 500 ft
< 800m
< 200 ft
Symboles :   Orages  Brouillard  Fortes neiges  Fortes précipitations  Vent > 20 kt
SIGMETs :   Divers  Orages  Givrage  Turbulence  Onde Orograph.  Cendres Volcan.







- Altitude de l'aérodrome : 726 ft
- Code IATA : DIJ
- Voir les cartes d'approche


LFSD - Dijon

DERNIER METAR :
  • 231530Z AUTO 23017G27KT 210V270 CAVOK 14/05 Q1007

METARs EXPIRÉS :
  • 231500Z AUTO 23019KT CAVOK 15/04 Q1007
  • 231430Z AUTO 23021KT CAVOK 15/03 Q1007
  • 231400Z AUTO 23021KT CAVOK 16/03 Q1007
  • 231330Z AUTO 23022G33KT CAVOK 16/02 Q1007
  • 231300Z AUTO 21014KT CAVOK 15/04 Q1008

Prévision TAF périmée.
Pas de NOTAMs connus pour ce terrain.
2 SIGMETs publiés pour la FIR Reims (LFEE) :
 
Onde orographique forte
LFEE SIGMET 2 VALID 231600/232000 LFPW
LFEE REIMS FIR/UIR SEV MTW FCST WI N4745 E00645 - N4845 E00715 - N4845 E00745 - N4745 E00715 FL040/370 STNR INTSF=
Turbulence forte
LFEE SIGMET 1 VALID 231300/231600 LFPW
LFEE REIMS FIR/UIR SEV TURB FCST NE OF LINE N4745 E00445 - N4730 E00730 SFC/FL050 MOV NE 20KT NC=



MET'MAP, la Météo Aéronautique d'un coup d'oeil ! - Copyright ORBIFLY Décembre 2007 - Disclaimer

ORBIFLY MET'MAP TEAM :

Programmation & Développement : Alexandra Zaïnal
Conception & Développement : Baudouin d'Aumeries
Co-Programmation & Développement : Marc-Olivier Méhu
Soutien technique & logistique : Manuel Goepfert

Contact : metmap@orbifly.com




SOURCES & CREDITS :

   NOAA